CheckWX is a tool to help pilots better visualize weather data.  It is not intended as a substitute for an official pre-flight weather briefing.

02:50:51 UTC

CYZY METAR
Mackenzie Airport
Mackenzie, Canada
Current

51 mins ago

CYZY 240200Z AUTO 15005KT 9SM FEW170 08/M03 A3015 RMK SLP235
Observed
Mar-24 @ 02:00 UTC
Wind
  • 150° at 5 KTS
Visibility
9 SM
Flight Rules
VFR
Cloud Levels
  • Few at 17,000' AGL
Temperature
C / 46°F
Dewpoint
-3°C / 27°F
Humidity
46%
Altimeter
30.15" Hg
Pressure
1023.5 hPa
Previous

2 hours ago

CYZY 240100Z AUTO 16008KT 9SM SCT070 09/M03 A3013 RMK SLP231
Observed
Mar-24 @ 01:00 UTC
Wind
  • 160° at 8 KTS
Visibility
9 SM
Flight Rules
VFR
Cloud Levels
  • Scattered at 7,000' AGL
Temperature
C / 48°F
Dewpoint
-3°C / 27°F
Humidity
43%
Altimeter
30.13" Hg
Pressure
1023.1 hPa
Previous

3 hours ago

CYZY 240000Z AUTO 15006KT 070V170 9SM OVC080 10/M02 A3012 RMK SLP225
Observed
Mar-24 @ 00:00 UTC
Wind
  • 150° at 6 KTS
Visibility
9 SM
Flight Rules
VFR
Cloud Levels
  • Overcast at 8,000' AGL
Temperature
10°C / 50°F
Dewpoint
-2°C / 28°F
Humidity
43%
Altimeter
30.12" Hg
Pressure
1022.5 hPa